sensor_id;sensor_type;location;lat;lon;timestamp;pressure;altitude;pressure_sealevel;temperature;humidity
6094;BME280;19964;42.060;24.700;2024-02-26T00:02:14;97130.59;;;10.03;98.09
6094;BME280;19964;42.060;24.700;2024-02-26T00:04:41;97133.22;;;9.92;97.03
6094;BME280;19964;42.060;24.700;2024-02-26T00:07:08;97136.44;;;9.99;94.29
6094;BME280;19964;42.060;24.700;2024-02-26T00:09:35;97119.22;;;10.16;92.00
6094;BME280;19964;42.060;24.700;2024-02-26T00:12:03;97114.06;;;10.32;91.17
6094;BME280;19964;42.060;24.700;2024-02-26T00:14:30;97112.38;;;9.98;93.73
6094;BME280;19964;42.060;24.700;2024-02-26T00:16:58;97106.38;;;10.09;95.86
6094;BME280;19964;42.060;24.700;2024-02-26T00:19:25;97119.22;;;10.16;94.55
6094;BME280;19964;42.060;24.700;2024-02-26T00:21:52;97122.63;;;10.33;93.48
6094;BME280;19964;42.060;24.700;2024-02-26T00:24:21;97126.34;;;10.37;94.19
6094;BME280;19964;42.060;24.700;2024-02-26T00:26:48;97133.09;;;10.10;96.35
6094;BME280;19964;42.060;24.700;2024-02-26T00:29:18;97130.13;;;10.06;96.98
6094;BME280;19964;42.060;24.700;2024-02-26T00:31:45;97125.31;;;10.10;95.91
6094;BME280;19964;42.060;24.700;2024-02-26T00:34:14;97119.53;;;10.19;94.48
6094;BME280;19964;42.060;24.700;2024-02-26T00:36:41;97108.44;;;10.35;91.04
6094;BME280;19964;42.060;24.700;2024-02-26T00:39:08;97086.75;;;10.53;90.46
6094;BME280;19964;42.060;24.700;2024-02-26T00:41:38;97051.16;;;10.65;89.31
6094;BME280;19964;42.060;24.700;2024-02-26T00:44:05;97072.59;;;10.44;92.63
6094;BME280;19964;42.060;24.700;2024-02-26T00:46:32;97088.78;;;10.51;93.88
6094;BME280;19964;42.060;24.700;2024-02-26T00:48:59;97093.72;;;10.52;93.01
6094;BME280;19964;42.060;24.700;2024-02-26T00:51:28;97094.78;;;10.40;96.50
6094;BME280;19964;42.060;24.700;2024-02-26T00:53:55;97082.72;;;10.62;93.46
6094;BME280;19964;42.060;24.700;2024-02-26T00:56:22;97075.91;;;10.39;95.03
6094;BME280;19964;42.060;24.700;2024-02-26T00:58:49;97068.75;;;10.30;97.79
6094;BME280;19964;42.060;24.700;2024-02-26T01:01:16;97070.31;;;10.31;99.83
6094;BME280;19964;42.060;24.700;2024-02-26T01:03:43;97073.88;;;10.41;99.25
6094;BME280;19964;42.060;24.700;2024-02-26T01:06:10;97000.63;;;10.13;98.92
6094;BME280;19964;42.060;24.700;2024-02-26T01:08:39;97072.94;;;10.64;97.37
6094;BME280;19964;42.060;24.700;2024-02-26T01:11:06;97078.78;;;10.43;97.78
6094;BME280;19964;42.060;24.700;2024-02-26T01:13:33;97076.81;;;10.33;100.00
6094;BME280;19964;42.060;24.700;2024-02-26T01:16:00;97070.59;;;10.18;100.00
6094;BME280;19964;42.060;24.700;2024-02-26T01:18:27;97067.22;;;10.17;100.00
6094;BME280;19964;42.060;24.700;2024-02-26T01:20:54;97076.34;;;10.36;100.00
6094;BME280;19964;42.060;24.700;2024-02-26T01:23:21;97077.59;;;10.34;100.00
6094;BME280;19964;42.060;24.700;2024-02-26T01:25:50;97078.72;;;10.54;100.00
6094;BME280;19964;42.060;24.700;2024-02-26T01:28:17;97084.28;;;10.46;99.48
6094;BME280;19964;42.060;24.700;2024-02-26T01:30:44;97076.34;;;10.36;100.00
6094;BME280;19964;42.060;24.700;2024-02-26T01:33:11;97068.69;;;10.41;100.00
6094;BME280;19964;42.060;24.700;2024-02-26T01:35:38;97078.16;;;10.36;100.00
6094;BME280;19964;42.060;24.700;2024-02-26T01:38:04;97078.47;;;10.39;100.00
6094;BME280;19964;42.060;24.700;2024-02-26T01:40:31;97078.25;;;10.41;99.53
6094;BME280;19964;42.060;24.700;2024-02-26T01:43:01;97054.28;;;10.17;100.00
6094;BME280;19964;42.060;24.700;2024-02-26T01:45:28;97073.88;;;10.13;100.00
6094;BME280;19964;42.060;24.700;2024-02-26T01:47:55;97075.25;;;10.04;100.00
6094;BME280;19964;42.060;24.700;2024-02-26T01:50:24;97061.00;;;9.90;100.00
6094;BME280;19964;42.060;24.700;2024-02-26T01:52:51;97072.00;;;9.97;100.00
6094;BME280;19964;42.060;24.700;2024-02-26T01:55:19;97066.06;;;9.97;100.00
6094;BME280;19964;42.060;24.700;2024-02-26T01:57:48;97069.75;;;9.89;100.00
6094;BME280;19964;42.060;24.700;2024-02-26T02:00:19;97072.69;;;9.93;100.00
6094;BME280;19964;42.060;24.700;2024-02-26T02:02:46;97066.91;;;10.02;100.00
6094;BME280;19964;42.060;24.700;2024-02-26T02:05:15;97060.38;;;10.11;100.00
6094;BME280;19964;42.060;24.700;2024-02-26T02:07:43;97058.38;;;10.02;100.00
6094;BME280;19964;42.060;24.700;2024-02-26T02:10:11;97060.81;;;10.08;100.00
6094;BME280;19964;42.060;24.700;2024-02-26T02:12:38;97058.81;;;10.10;100.00
6094;BME280;19964;42.060;24.700;2024-02-26T02:15:06;97056.72;;;10.24;100.00
6094;BME280;19964;42.060;24.700;2024-02-26T02:17:35;97060.97;;;10.30;99.54
6094;BME280;19964;42.060;24.700;2024-02-26T02:20:02;97060.69;;;10.15;100.00
6094;BME280;19964;42.060;24.700;2024-02-26T02:22:30;97046.97;;;10.03;100.00
6094;BME280;19964;42.060;24.700;2024-02-26T02:24:58;97053.72;;;10.15;100.00
6094;BME280;19964;42.060;24.700;2024-02-26T02:27:26;97059.75;;;9.93;100.00
6094;BME280;19964;42.060;24.700;2024-02-26T02:29:54;97063.47;;;9.97;100.00
6094;BME280;19964;42.060;24.700;2024-02-26T02:32:21;97053.28;;;10.07;100.00
6094;BME280;19964;42.060;24.700;2024-02-26T02:34:49;97064.47;;;9.96;100.00
6094;BME280;19964;42.060;24.700;2024-02-26T02:37:16;97067.97;;;9.89;100.00
6094;BME280;19964;42.060;24.700;2024-02-26T02:39:45;97069.16;;;9.99;100.00
6094;BME280;19964;42.060;24.700;2024-02-26T02:42:12;97068.94;;;10.12;99.20
6094;BME280;19964;42.060;24.700;2024-02-26T02:44:39;97067.69;;;10.03;100.00
6094;BME280;19964;42.060;24.700;2024-02-26T02:47:06;97066.13;;;10.02;100.00
6094;BME280;19964;42.060;24.700;2024-02-26T02:49:32;97067.91;;;10.13;99.99
6094;BME280;19964;42.060;24.700;2024-02-26T02:51:59;97057.06;;;9.87;100.00
6094;BME280;19964;42.060;24.700;2024-02-26T02:54:26;97075.69;;;9.73;100.00
6094;BME280;19964;42.060;24.700;2024-02-26T02:56:55;97072.53;;;9.71;100.00
6094;BME280;19964;42.060;24.700;2024-02-26T02:59:22;97064.19;;;9.80;100.00
6094;BME280;19964;42.060;24.700;2024-02-26T03:01:49;97071.28;;;9.73;100.00
6094;BME280;19964;42.060;24.700;2024-02-26T03:04:16;97066.47;;;9.77;100.00
6094;BME280;19964;42.060;24.700;2024-02-26T03:06:43;97070.13;;;9.93;100.00
6094;BME280;19964;42.060;24.700;2024-02-26T03:09:09;97068.63;;;9.57;100.00
6094;BME280;19964;42.060;24.700;2024-02-26T03:11:36;97060.69;;;9.35;100.00
6094;BME280;19964;42.060;24.700;2024-02-26T03:14:05;97074.28;;;9.42;100.00
6094;BME280;19964;42.060;24.700;2024-02-26T03:16:33;97071.91;;;9.52;100.00
6094;BME280;19964;42.060;24.700;2024-02-26T03:19:00;97077.75;;;9.59;100.00
6094;BME280;19964;42.060;24.700;2024-02-26T03:21:28;97074.72;;;9.51;100.00
6094;BME280;19964;42.060;24.700;2024-02-26T03:23:55;97070.22;;;9.46;100.00
6094;BME280;19964;42.060;24.700;2024-02-26T03:26:22;97077.41;;;9.44;100.00
6094;BME280;19964;42.060;24.700;2024-02-26T03:28:49;97007.38;;;9.06;100.00
6094;BME280;19964;42.060;24.700;2024-02-26T03:31:18;97077.97;;;9.46;100.00
6094;BME280;19964;42.060;24.700;2024-02-26T03:33:45;97077.63;;;9.54;100.00
6094;BME280;19964;42.060;24.700;2024-02-26T03:36:12;97069.81;;;9.77;100.00
6094;BME280;19964;42.060;24.700;2024-02-26T03:38:40;97069.91;;;9.82;100.00
6094;BME280;19964;42.060;24.700;2024-02-26T03:41:07;97065.94;;;9.92;100.00
6094;BME280;19964;42.060;24.700;2024-02-26T03:43:35;97076.19;;;9.35;100.00
6094;BME280;19964;42.060;24.700;2024-02-26T03:46:02;97079.69;;;9.41;100.00
6094;BME280;19964;42.060;24.700;2024-02-26T03:48:30;97062.16;;;9.31;100.00
6094;BME280;19964;42.060;24.700;2024-02-26T03:50:57;97070.44;;;9.56;100.00
6094;BME280;19964;42.060;24.700;2024-02-26T03:53:24;97073.56;;;9.58;100.00
6094;BME280;19964;42.060;24.700;2024-02-26T03:55:51;97058.34;;;9.34;100.00
6094;BME280;19964;42.060;24.700;2024-02-26T03:58:18;97070.72;;;9.20;100.00
6094;BME280;19964;42.060;24.700;2024-02-26T04:00:45;97071.47;;;9.21;100.00
6094;BME280;19964;42.060;24.700;2024-02-26T04:03:13;97074.09;;;9.32;100.00
6094;BME280;19964;42.060;24.700;2024-02-26T04:05:41;97072.59;;;9.48;100.00
6094;BME280;19964;42.060;24.700;2024-02-26T04:08:08;97078.75;;;9.58;100.00
6094;BME280;19964;42.060;24.700;2024-02-26T04:10:36;97075.81;;;9.66;100.00
6094;BME280;19964;42.060;24.700;2024-02-26T04:13:04;97078.34;;;9.78;100.00
6094;BME280;19964;42.060;24.700;2024-02-26T04:15:31;97079.31;;;9.60;100.00
6094;BME280;19964;42.060;24.700;2024-02-26T04:17:58;97076.97;;;9.47;100.00
6094;BME280;19964;42.060;24.700;2024-02-26T04:20:25;97083.81;;;9.65;100.00
6094;BME280;19964;42.060;24.700;2024-02-26T04:22:53;97084.00;;;9.75;100.00
6094;BME280;19964;42.060;24.700;2024-02-26T04:25:20;97078.91;;;9.80;100.00
6094;BME280;19964;42.060;24.700;2024-02-26T04:27:47;97069.06;;;9.65;100.00
6094;BME280;19964;42.060;24.700;2024-02-26T04:30:14;97069.72;;;9.72;100.00
6094;BME280;19964;42.060;24.700;2024-02-26T04:32:42;97076.50;;;9.50;100.00
6094;BME280;19964;42.060;24.700;2024-02-26T04:35:09;97081.78;;;9.67;100.00
6094;BME280;19964;42.060;24.700;2024-02-26T04:37:36;97081.31;;;9.70;100.00
6094;BME280;19964;42.060;24.700;2024-02-26T04:40:08;97088.25;;;9.81;100.00
6094;BME280;19964;42.060;24.700;2024-02-26T04:42:35;97079.91;;;9.91;100.00
6094;BME280;19964;42.060;24.700;2024-02-26T04:45:02;97082.44;;;10.02;100.00
6094;BME280;19964;42.060;24.700;2024-02-26T04:47:29;97083.66;;;10.11;100.00
6094;BME280;19964;42.060;24.700;2024-02-26T04:49:56;97087.69;;;10.19;100.00
6094;BME280;19964;42.060;24.700;2024-02-26T04:52:23;97085.84;;;9.91;100.00
6094;BME280;19964;42.060;24.700;2024-02-26T04:54:50;97072.81;;;9.35;100.00
6094;BME280;19964;42.060;24.700;2024-02-26T04:57:19;97089.09;;;9.58;100.00
6094;BME280;19964;42.060;24.700;2024-02-26T04:59:46;97088.19;;;9.64;100.00
6094;BME280;19964;42.060;24.700;2024-02-26T05:02:13;97077.84;;;9.64;100.00
6094;BME280;19964;42.060;24.700;2024-02-26T05:04:40;97080.69;;;9.51;100.00
6094;BME280;19964;42.060;24.700;2024-02-26T05:07:07;97091.16;;;9.22;100.00
6094;BME280;19964;42.060;24.700;2024-02-26T05:09:34;97078.00;;;9.23;100.00
6094;BME280;19964;42.060;24.700;2024-02-26T05:12:02;97095.06;;;9.47;100.00
6094;BME280;19964;42.060;24.700;2024-02-26T05:14:30;97091.38;;;9.43;100.00
6094;BME280;19964;42.060;24.700;2024-02-26T05:16:57;97091.38;;;9.32;100.00
6094;BME280;19964;42.060;24.700;2024-02-26T05:19:24;97091.81;;;9.29;100.00
6094;BME280;19964;42.060;24.700;2024-02-26T05:21:51;97097.13;;;9.22;100.00
6094;BME280;19964;42.060;24.700;2024-02-26T05:24:18;97100.16;;;9.08;100.00
6094;BME280;19964;42.060;24.700;2024-02-26T05:26:48;97096.44;;;9.04;100.00
6094;BME280;19964;42.060;24.700;2024-02-26T05:29:15;97108.69;;;9.20;100.00
6094;BME280;19964;42.060;24.700;2024-02-26T05:31:43;97101.41;;;9.28;100.00
6094;BME280;19964;42.060;24.700;2024-02-26T05:34:10;97092.84;;;9.05;100.00
6094;BME280;19964;42.060;24.700;2024-02-26T05:36:37;97116.44;;;9.08;100.00
6094;BME280;19964;42.060;24.700;2024-02-26T05:39:04;97118.38;;;9.13;100.00
6094;BME280;19964;42.060;24.700;2024-02-26T05:41:32;97109.25;;;9.22;100.00
6094;BME280;19964;42.060;24.700;2024-02-26T05:43:59;97106.75;;;9.27;100.00
6094;BME280;19964;42.060;24.700;2024-02-26T05:46:26;97106.56;;;9.28;100.00
6094;BME280;19964;42.060;24.700;2024-02-26T05:48:55;97112.63;;;9.11;100.00
6094;BME280;19964;42.060;24.700;2024-02-26T05:51:21;97116.44;;;8.96;100.00
6094;BME280;19964;42.060;24.700;2024-02-26T05:53:48;97107.78;;;9.03;100.00
6094;BME280;19964;42.060;24.700;2024-02-26T05:56:20;97112.16;;;9.02;100.00
6094;BME280;19964;42.060;24.700;2024-02-26T05:58:47;97118.13;;;9.14;100.00
6094;BME280;19964;42.060;24.700;2024-02-26T06:01:15;97117.25;;;9.20;100.00
6094;BME280;19964;42.060;24.700;2024-02-26T06:03:43;97117.00;;;9.22;100.00
6094;BME280;19964;42.060;24.700;2024-02-26T06:06:11;97111.28;;;9.08;100.00
6094;BME280;19964;42.060;24.700;2024-02-26T06:08:39;97122.97;;;9.22;100.00
6094;BME280;19964;42.060;24.700;2024-02-26T06:11:06;97124.97;;;9.09;100.00
6094;BME280;19964;42.060;24.700;2024-02-26T06:13:34;97134.88;;;9.23;100.00
6094;BME280;19964;42.060;24.700;2024-02-26T06:16:01;97129.59;;;9.30;100.00
6094;BME280;19964;42.060;24.700;2024-02-26T06:18:28;97135.88;;;9.45;100.00
6094;BME280;19964;42.060;24.700;2024-02-26T06:20:55;97131.94;;;9.43;100.00
6094;BME280;19964;42.060;24.700;2024-02-26T06:23:23;97146.44;;;9.55;100.00
6094;BME280;19964;42.060;24.700;2024-02-26T06:25:51;97152.47;;;9.72;100.00
6094;BME280;19964;42.060;24.700;2024-02-26T06:28:18;97138.66;;;9.78;100.00
6094;BME280;19964;42.060;24.700;2024-02-26T06:30:45;97148.38;;;10.00;100.00
6094;BME280;19964;42.060;24.700;2024-02-26T06:33:12;97155.66;;;10.14;100.00
6094;BME280;19964;42.060;24.700;2024-02-26T06:35:39;97159.03;;;10.15;100.00
6094;BME280;19964;42.060;24.700;2024-02-26T06:38:07;97161.03;;;10.24;100.00
6094;BME280;19964;42.060;24.700;2024-02-26T06:40:36;97160.78;;;10.37;100.00
6094;BME280;19964;42.060;24.700;2024-02-26T06:43:03;97173.22;;;10.52;100.00
6094;BME280;19964;42.060;24.700;2024-02-26T06:45:30;97125.47;;;10.31;100.00
6094;BME280;19964;42.060;24.700;2024-02-26T06:47:57;97161.00;;;10.64;100.00
6094;BME280;19964;42.060;24.700;2024-02-26T06:50:24;97173.56;;;10.72;100.00
6094;BME280;19964;42.060;24.700;2024-02-26T06:52:50;97170.91;;;10.84;100.00
6094;BME280;19964;42.060;24.700;2024-02-26T06:55:17;97162.16;;;10.56;100.00
6094;BME280;19964;42.060;24.700;2024-02-26T06:57:46;97155.88;;;10.69;100.00
6094;BME280;19964;42.060;24.700;2024-02-26T07:00:14;97176.03;;;10.95;100.00
6094;BME280;19964;42.060;24.700;2024-02-26T07:02:42;97181.22;;;11.12;100.00
6094;BME280;19964;42.060;24.700;2024-02-26T07:05:09;97179.03;;;11.20;100.00
6094;BME280;19964;42.060;24.700;2024-02-26T07:07:36;97175.78;;;11.30;100.00
6094;BME280;19964;42.060;24.700;2024-02-26T07:10:04;97182.19;;;11.39;100.00
6094;BME280;19964;42.060;24.700;2024-02-26T07:12:31;97182.94;;;11.39;100.00
6094;BME280;19964;42.060;24.700;2024-02-26T07:15:00;97163.78;;;11.40;100.00
6094;BME280;19964;42.060;24.700;2024-02-26T07:17:28;97175.75;;;11.63;100.00
6094;BME280;19964;42.060;24.700;2024-02-26T07:19:55;97181.75;;;11.63;100.00
6094;BME280;19964;42.060;24.700;2024-02-26T07:22:22;97184.22;;;11.70;100.00
6094;BME280;19964;42.060;24.700;2024-02-26T07:24:49;97180.31;;;11.73;100.00
6094;BME280;19964;42.060;24.700;2024-02-26T07:27:16;97183.56;;;11.80;100.00
6094;BME280;19964;42.060;24.700;2024-02-26T07:29:44;97183.44;;;11.91;100.00
6094;BME280;19964;42.060;24.700;2024-02-26T07:32:12;97187.13;;;11.95;100.00
6094;BME280;19964;42.060;24.700;2024-02-26T07:34:39;97161.50;;;11.44;100.00
6094;BME280;19964;42.060;24.700;2024-02-26T07:37:07;97156.25;;;11.06;100.00
6094;BME280;19964;42.060;24.700;2024-02-26T07:39:34;97183.28;;;11.10;100.00
6094;BME280;19964;42.060;24.700;2024-02-26T07:42:02;97177.44;;;11.03;100.00
6094;BME280;19964;42.060;24.700;2024-02-26T07:44:29;97171.88;;;11.11;100.00
6094;BME280;19964;42.060;24.700;2024-02-26T07:46:56;97169.75;;;11.24;100.00
6094;BME280;19964;42.060;24.700;2024-02-26T07:49:24;97171.25;;;11.37;100.00
6094;BME280;19964;42.060;24.700;2024-02-26T07:51:51;97143.66;;;11.31;100.00
6094;BME280;19964;42.060;24.700;2024-02-26T07:54:18;97169.66;;;11.52;100.00
6094;BME280;19964;42.060;24.700;2024-02-26T07:56:45;97168.25;;;11.28;100.00
6094;BME280;19964;42.060;24.700;2024-02-26T07:59:12;97157.41;;;11.48;100.00
6094;BME280;19964;42.060;24.700;2024-02-26T08:01:39;97167.72;;;11.64;100.00
6094;BME280;19964;42.060;24.700;2024-02-26T08:04:07;97167.72;;;11.64;100.00
6094;BME280;19964;42.060;24.700;2024-02-26T08:06:35;97172.13;;;11.81;100.00
6094;BME280;19964;42.060;24.700;2024-02-26T08:09:02;97178.59;;;12.00;100.00
6094;BME280;19964;42.060;24.700;2024-02-26T08:11:29;97177.63;;;12.06;100.00
6094;BME280;19964;42.060;24.700;2024-02-26T08:13:56;97171.19;;;12.08;100.00
6094;BME280;19964;42.060;24.700;2024-02-26T08:16:24;97181.69;;;11.97;100.00
6094;BME280;19964;42.060;24.700;2024-02-26T08:18:51;97174.91;;;11.74;100.00
6094;BME280;19964;42.060;24.700;2024-02-26T08:21:18;97167.97;;;11.63;100.00
6094;BME280;19964;42.060;24.700;2024-02-26T08:23:47;97169.31;;;11.49;100.00
6094;BME280;19964;42.060;24.700;2024-02-26T08:26:13;97169.94;;;11.73;100.00
6094;BME280;19964;42.060;24.700;2024-02-26T08:28:40;97162.53;;;11.81;100.00
6094;BME280;19964;42.060;24.700;2024-02-26T08:31:07;97176.50;;;11.97;100.00
6094;BME280;19964;42.060;24.700;2024-02-26T08:33:34;97183.00;;;11.61;100.00
6094;BME280;19964;42.060;24.700;2024-02-26T08:36:04;97175.38;;;11.71;100.00
6094;BME280;19964;42.060;24.700;2024-02-26T08:38:31;97170.28;;;11.59;100.00
6094;BME280;19964;42.060;24.700;2024-02-26T08:41:01;97172.41;;;11.46;100.00
6094;BME280;19964;42.060;24.700;2024-02-26T08:43:28;97168.56;;;11.32;100.00
6094;BME280;19964;42.060;24.700;2024-02-26T08:45:56;97096.09;;;10.87;100.00
6094;BME280;19964;42.060;24.700;2024-02-26T08:48:23;97166.41;;;11.62;100.00
6094;BME280;19964;42.060;24.700;2024-02-26T08:50:50;97158.31;;;11.75;100.00
6094;BME280;19964;42.060;24.700;2024-02-26T08:53:17;97167.06;;;11.91;100.00
6094;BME280;19964;42.060;24.700;2024-02-26T08:55:44;97167.91;;;11.58;100.00
6094;BME280;19964;42.060;24.700;2024-02-26T08:58:12;97163.09;;;11.83;100.00
6094;BME280;19964;42.060;24.700;2024-02-26T09:00:39;97165.25;;;11.70;100.00
6094;BME280;19964;42.060;24.700;2024-02-26T09:03:06;97170.50;;;11.58;100.00
6094;BME280;19964;42.060;24.700;2024-02-26T09:05:33;97162.25;;;11.78;100.00
6094;BME280;19964;42.060;24.700;2024-02-26T09:08:00;97166.16;;;11.63;100.00
6094;BME280;19964;42.060;24.700;2024-02-26T09:10:28;97170.19;;;11.71;100.00
6094;BME280;19964;42.060;24.700;2024-02-26T09:12:55;97167.44;;;11.61;100.00
6094;BME280;19964;42.060;24.700;2024-02-26T09:15:23;97157.59;;;11.80;100.00
6094;BME280;19964;42.060;24.700;2024-02-26T09:17:50;97165.13;;;11.64;100.00
6094;BME280;19964;42.060;24.700;2024-02-26T09:20:17;97160.63;;;11.38;100.00
6094;BME280;19964;42.060;24.700;2024-02-26T09:22:45;97158.19;;;11.32;100.00
6094;BME280;19964;42.060;24.700;2024-02-26T09:25:12;97157.84;;;11.45;100.00
6094;BME280;19964;42.060;24.700;2024-02-26T09:27:41;97172.06;;;11.76;100.00
6094;BME280;19964;42.060;24.700;2024-02-26T09:30:09;97155.03;;;11.46;100.00
6094;BME280;19964;42.060;24.700;2024-02-26T09:32:38;97165.81;;;11.38;100.00
6094;BME280;19964;42.060;24.700;2024-02-26T09:35:05;97158.13;;;11.65;100.00
6094;BME280;19964;42.060;24.700;2024-02-26T09:37:33;97151.06;;;11.77;100.00
6094;BME280;19964;42.060;24.700;2024-02-26T09:40:02;97166.13;;;11.97;100.00
6094;BME280;19964;42.060;24.700;2024-02-26T09:42:31;97162.59;;;12.29;100.00
6094;BME280;19964;42.060;24.700;2024-02-26T09:45:00;97157.94;;;12.31;100.00
6094;BME280;19964;42.060;24.700;2024-02-26T09:47:31;97149.00;;;12.44;100.00
6094;BME280;19964;42.060;24.700;2024-02-26T09:50:00;97149.69;;;12.61;100.00
6094;BME280;19964;42.060;24.700;2024-02-26T09:52:28;97140.91;;;12.67;100.00
6094;BME280;19964;42.060;24.700;2024-02-26T09:54:57;97148.88;;;12.61;100.00
6094;BME280;19964;42.060;24.700;2024-02-26T09:57:25;97140.38;;;12.65;100.00
6094;BME280;19964;42.060;24.700;2024-02-26T09:59:53;97119.41;;;12.23;100.00
6094;BME280;19964;42.060;24.700;2024-02-26T10:02:25;97142.03;;;12.49;100.00
6094;BME280;19964;42.060;24.700;2024-02-26T10:04:54;97133.13;;;12.72;100.00
6094;BME280;19964;42.060;24.700;2024-02-26T10:07:24;97124.16;;;12.58;100.00
6094;BME280;19964;42.060;24.700;2024-02-26T10:09:52;97122.19;;;12.97;100.00
6094;BME280;19964;42.060;24.700;2024-02-26T10:12:19;97126.16;;;12.46;100.00
6094;BME280;19964;42.060;24.700;2024-02-26T10:14:46;97122.03;;;12.50;100.00
6094;BME280;19964;42.060;24.700;2024-02-26T10:17:13;97109.50;;;12.42;100.00
6094;BME280;19964;42.060;24.700;2024-02-26T10:19:40;97117.75;;;12.12;100.00
6094;BME280;19964;42.060;24.700;2024-02-26T10:22:07;97116.47;;;12.15;100.00
6094;BME280;19964;42.060;24.700;2024-02-26T10:24:36;97109.31;;;12.27;100.00
6094;BME280;19964;42.060;24.700;2024-02-26T10:27:03;97102.28;;;12.49;100.00
6094;BME280;19964;42.060;24.700;2024-02-26T10:29:31;97111.03;;;12.70;100.00
6094;BME280;19964;42.060;24.700;2024-02-26T10:31:58;97104.88;;;12.81;100.00
6094;BME280;19964;42.060;24.700;2024-02-26T10:34:26;97104.06;;;13.07;100.00
6094;BME280;19964;42.060;24.700;2024-02-26T10:36:54;97094.41;;;13.02;98.97
6094;BME280;19964;42.060;24.700;2024-02-26T10:39:20;97086.69;;;12.81;100.00
6094;BME280;19964;42.060;24.700;2024-02-26T10:41:50;97097.19;;;13.27;100.00
6094;BME280;19964;42.060;24.700;2024-02-26T10:44:17;97091.97;;;13.27;96.98
6094;BME280;19964;42.060;24.700;2024-02-26T10:46:46;97074.56;;;13.33;97.10
6094;BME280;19964;42.060;24.700;2024-02-26T10:49:15;97091.13;;;13.64;92.74
6094;BME280;19964;42.060;24.700;2024-02-26T10:51:45;97093.03;;;13.31;91.14
6094;BME280;19964;42.060;24.700;2024-02-26T10:54:15;97089.81;;;13.61;90.62
6094;BME280;19964;42.060;24.700;2024-02-26T10:56:43;97096.84;;;13.61;88.59
6094;BME280;19964;42.060;24.700;2024-02-26T10:59:14;96984.00;;;13.20;86.99
6094;BME280;19964;42.060;24.700;2024-02-26T11:01:47;97085.22;;;13.78;87.92
6094;BME280;19964;42.060;24.700;2024-02-26T11:04:15;97069.22;;;13.50;88.34
6094;BME280;19964;42.060;24.700;2024-02-26T11:06:43;97079.84;;;13.43;88.91
6094;BME280;19964;42.060;24.700;2024-02-26T11:09:12;97062.97;;;13.56;89.39
6094;BME280;19964;42.060;24.700;2024-02-26T11:11:40;97074.00;;;13.73;90.55
6094;BME280;19964;42.060;24.700;2024-02-26T11:14:09;97042.41;;;13.54;89.33
6094;BME280;19964;42.060;24.700;2024-02-26T11:16:39;97071.44;;;13.88;88.74
6094;BME280;19964;42.060;24.700;2024-02-26T11:19:08;97070.66;;;13.82;89.08
6094;BME280;19964;42.060;24.700;2024-02-26T11:21:35;97064.38;;;13.78;88.12
6094;BME280;19964;42.060;24.700;2024-02-26T11:24:07;97069.03;;;13.71;88.33
6094;BME280;19964;42.060;24.700;2024-02-26T11:26:39;97060.03;;;14.09;88.49
6094;BME280;19964;42.060;24.700;2024-02-26T11:29:09;97050.31;;;13.79;87.03
6094;BME280;19964;42.060;24.700;2024-02-26T11:31:39;97059.97;;;13.84;88.55
6094;BME280;19964;42.060;24.700;2024-02-26T11:34:07;97046.50;;;14.12;89.27
6094;BME280;19964;42.060;24.700;2024-02-26T11:36:34;97034.19;;;13.82;86.34
6094;BME280;19964;42.060;24.700;2024-02-26T11:39:04;97050.59;;;13.88;87.07
6094;BME280;19964;42.060;24.700;2024-02-26T11:41:31;97034.44;;;13.81;87.52
6094;BME280;19964;42.060;24.700;2024-02-26T11:44:00;97041.28;;;14.17;86.18
6094;BME280;19964;42.060;24.700;2024-02-26T11:46:29;97034.78;;;14.24;85.05
6094;BME280;19964;42.060;24.700;2024-02-26T11:49:00;97011.81;;;13.91;84.29
6094;BME280;19964;42.060;24.700;2024-02-26T11:51:31;97045.41;;;13.83;85.50
6094;BME280;19964;42.060;24.700;2024-02-26T11:53:58;97030.34;;;14.15;85.89
6094;BME280;19964;42.060;24.700;2024-02-26T11:56:25;97034.59;;;14.56;83.55
6094;BME280;19964;42.060;24.700;2024-02-26T11:59:01;97024.41;;;14.30;81.53
6094;BME280;19964;42.060;24.700;2024-02-26T12:01:42;97026.50;;;14.33;82.92
6094;BME280;19964;42.060;24.700;2024-02-26T12:04:16;97019.97;;;14.30;82.31
6094;BME280;19964;42.060;24.700;2024-02-26T12:06:45;97035.63;;;14.65;80.95
6094;BME280;19964;42.060;24.700;2024-02-26T12:09:13;97025.72;;;14.52;78.60
6094;BME280;19964;42.060;24.700;2024-02-26T12:11:40;97040.56;;;14.42;79.98
6094;BME280;19964;42.060;24.700;2024-02-26T12:14:09;97036.13;;;14.42;79.81
6094;BME280;19964;42.060;24.700;2024-02-26T12:16:37;97020.78;;;14.41;80.83
6094;BME280;19964;42.060;24.700;2024-02-26T12:19:05;96959.75;;;14.01;79.45
6094;BME280;19964;42.060;24.700;2024-02-26T12:21:35;97018.66;;;14.78;77.45
6094;BME280;19964;42.060;24.700;2024-02-26T12:24:12;97024.59;;;15.18;77.56
6094;BME280;19964;42.060;24.700;2024-02-26T12:26:40;97030.56;;;15.24;75.50
6094;BME280;19964;42.060;24.700;2024-02-26T12:29:07;97027.47;;;15.02;74.58
6094;BME280;19964;42.060;24.700;2024-02-26T12:31:35;97031.31;;;15.50;75.43
6094;BME280;19964;42.060;24.700;2024-02-26T12:34:02;97028.81;;;15.78;73.33
6094;BME280;19964;42.060;24.700;2024-02-26T12:36:30;97019.56;;;16.01;71.93
6094;BME280;19964;42.060;24.700;2024-02-26T12:38:58;97031.84;;;15.95;68.71
6094;BME280;19964;42.060;24.700;2024-02-26T12:41:26;97024.97;;;16.15;69.55
6094;BME280;19964;42.060;24.700;2024-02-26T12:43:53;97031.84;;;16.39;68.78
6094;BME280;19964;42.060;24.700;2024-02-26T12:46:21;96994.47;;;16.00;67.85
6094;BME280;19964;42.060;24.700;2024-02-26T12:48:48;97028.22;;;15.96;68.39
6094;BME280;19964;42.060;24.700;2024-02-26T12:51:16;97039.22;;;15.88;68.25
6094;BME280;19964;42.060;24.700;2024-02-26T12:53:44;97024.84;;;15.91;68.43
6094;BME280;19964;42.060;24.700;2024-02-26T12:56:13;97009.75;;;15.83;67.51
6094;BME280;19964;42.060;24.700;2024-02-26T12:58:42;97025.88;;;15.95;67.98